Time;durP1;ratioP1;P1;durP2;ratioP2;P2;SDS_P1;SDS_P2;PMS_P1;PMS_P2;Temp;Humidity;BMP_temperature;BMP_pressure;BME280_temperature;BME280_humidity;BME280_pressure;Samples;Min_cycle;Max_cycle;Signal;HPM_P1;HPM_P2
2022/07/04 00:01:48;;;;;;;0.50;0.50;;;23.00;99.90;;;;;;5066504;28;20589;-62
2022/07/04 00:04:15;;;;;;;0.52;0.52;;;23.00;99.90;;;;;;5062996;28;20737;-63
2022/07/04 00:06:42;;;;;;;0.65;0.60;;;22.90;99.90;;;;;;5065057;28;20268;-64
2022/07/04 00:09:09;;;;;;;0.52;0.52;;;22.90;99.90;;;;;;5069633;28;20206;-61
2022/07/04 00:11:36;;;;;;;0.50;0.50;;;22.90;99.90;;;;;;5072943;28;20542;-62
2022/07/04 00:14:02;;;;;;;0.73;0.57;;;22.80;99.90;;;;;;5074262;28;20203;-62
2022/07/04 00:16:31;;;;;;;0.45;0.45;;;22.80;99.90;;;;;;5075345;28;20303;-63
2022/07/04 00:18:57;;;;;;;0.60;0.60;;;22.80;99.90;;;;;;5062725;28;20306;-63
2022/07/04 00:21:24;;;;;;;0.60;0.60;;;22.60;99.90;;;;;;5067072;28;20226;-62
2022/07/04 00:23:51;;;;;;;0.60;0.60;;;22.60;99.90;;;;;;5077519;28;20679;-63
2022/07/04 00:26:18;;;;;;;0.80;0.80;;;22.60;99.90;;;;;;5070108;28;20203;-63
2022/07/04 00:28:45;;;;;;;0.55;0.55;;;22.50;99.90;;;;;;5070285;28;20211;-64
2022/07/04 00:31:13;;;;;;;0.80;0.80;;;22.60;99.90;;;;;;5069340;28;20205;-63
2022/07/04 00:33:41;;;;;;;0.60;0.60;;;22.60;99.90;;;;;;5073296;28;20231;-65
2022/07/04 00:36:08;;;;;;;0.80;0.80;;;22.60;99.90;;;;;;5072809;28;20683;-63
2022/07/04 00:38:35;;;;;;;0.77;0.77;;;22.70;99.90;;;;;;5074821;28;20666;-61
2022/07/04 00:41:03;;;;;;;0.50;0.50;;;22.70;99.90;;;;;;5072159;28;20227;-61
2022/07/04 00:43:30;;;;;;;0.88;0.60;;;22.60;99.90;;;;;;5074614;28;20722;-62
2022/07/04 00:45:57;;;;;;;0.73;0.70;;;22.60;99.90;;;;;;5074729;28;20298;-62
2022/07/04 00:48:25;;;;;;;0.70;0.70;;;22.50;99.90;;;;;;5070803;28;20668;-61
2022/07/04 00:50:53;;;;;;;1.85;0.60;;;22.40;99.90;;;;;;5069562;28;20203;-61
2022/07/04 00:53:23;;;;;;;0.57;0.57;;;22.40;99.90;;;;;;5070980;28;20230;-61
2022/07/04 00:55:51;;;;;;;0.73;0.73;;;22.30;99.90;;;;;;5076623;28;20210;-61
2022/07/04 00:58:21;;;;;;;0.60;0.60;;;22.20;99.90;;;;;;5076485;28;20211;-61
2022/07/04 01:00:48;;;;;;;0.60;0.60;;;22.20;99.90;;;;;;5078852;28;20211;-62
2022/07/04 01:03:15;;;;;;;0.70;0.70;;;22.10;99.90;;;;;;5075473;28;20301;-62
2022/07/04 01:05:43;;;;;;;0.70;0.70;;;22.10;99.90;;;;;;5076276;28;20213;-62
2022/07/04 01:08:12;;;;;;;0.80;0.80;;;22.00;99.90;;;;;;5080708;28;20206;-62
2022/07/04 01:10:39;;;;;;;0.80;0.80;;;22.00;99.90;;;;;;5073983;28;20206;-62
2022/07/04 01:13:06;;;;;;;0.60;0.60;;;21.90;99.90;;;;;;5070044;28;20586;-64
2022/07/04 01:15:33;;;;;;;0.70;0.70;;;21.90;99.90;;;;;;5070154;28;20203;-61
2022/07/04 01:18:00;;;;;;;0.50;0.50;;;21.80;99.90;;;;;;5068871;28;20232;-61
2022/07/04 01:20:35;;;;;;;0.68;0.68;;;21.80;99.90;;;;;;5077057;28;20202;-62
2022/07/04 01:23:02;;;;;;;0.63;0.63;;;21.80;99.90;;;;;;5076778;28;20316;-64
2022/07/04 01:25:29;;;;;;;1.00;0.73;;;21.60;99.90;;;;;;5079530;28;20199;-62
2022/07/04 01:27:56;;;;;;;0.70;0.70;;;21.60;99.90;;;;;;5079966;28;20750;-62
2022/07/04 01:30:23;;;;;;;0.70;0.70;;;21.50;99.90;;;;;;5085946;28;20238;-63
2022/07/04 01:32:50;;;;;;;0.80;0.80;;;21.40;99.90;;;;;;5078403;28;20450;-63
2022/07/04 01:35:17;;;;;;;0.73;0.73;;;21.30;99.90;;;;;;5072626;28;20581;-63
2022/07/04 01:37:45;;;;;;;0.70;0.70;;;21.30;99.90;;;;;;5073152;28;20220;-62
2022/07/04 01:40:13;;;;;;;0.55;0.55;;;21.20;99.90;;;;;;5076664;28;20213;-62
2022/07/04 01:42:40;;;;;;;0.60;0.60;;;21.10;99.90;;;;;;5075336;28;20724;-61
2022/07/04 01:45:07;;;;;;;0.65;0.65;;;21.10;99.90;;;;;;5080023;28;20383;-62
2022/07/04 01:47:35;;;;;;;0.73;0.73;;;21.00;99.90;;;;;;5068598;28;20211;-62
2022/07/04 01:50:02;;;;;;;0.63;0.63;;;21.00;99.90;;;;;;5071243;28;20209;-64
2022/07/04 01:52:29;;;;;;;0.80;0.80;;;20.90;99.90;;;;;;5078825;28;20211;-63
2022/07/04 01:54:58;;;;;;;0.60;0.60;;;20.90;99.90;;;;;;5077570;28;20206;-63
2022/07/04 01:57:24;;;;;;;0.60;0.60;;;20.80;99.90;;;;;;5075100;28;20303;-64
2022/07/04 02:02:36;;;;;;;0.60;0.60;;;20.70;99.90;;;;;;5075635;28;20291;-63
2022/07/04 02:05:03;;;;;;;0.63;0.63;;;20.60;99.90;;;;;;5075284;28;20286;-64
2022/07/04 02:07:30;;;;;;;0.70;0.70;;;20.60;99.90;;;;;;5075016;28;20203;-63
2022/07/04 02:09:59;;;;;;;0.50;0.50;;;20.50;99.90;;;;;;5080164;28;20290;-62
2022/07/04 02:15:10;;;;;;;0.50;0.50;;;20.50;99.90;;;;;;5067913;28;20210;-63
2022/07/04 02:17:37;;;;;;;1.00;0.88;;;20.40;99.90;;;;;;5067814;28;20288;-63
2022/07/04 02:20:06;;;;;;;0.80;0.80;;;20.40;99.90;;;;;;5074636;28;20298;-62
2022/07/04 02:22:33;;;;;;;0.80;0.80;;;20.40;99.90;;;;;;5065472;28;20624;-64
2022/07/04 02:25:01;;;;;;;0.82;0.82;;;20.40;99.90;;;;;;5070006;28;20290;-67
2022/07/04 02:27:28;;;;;;;0.47;0.47;;;20.30;99.90;;;;;;5075336;28;20272;-63
2022/07/04 02:29:55;;;;;;;0.77;0.77;;;20.20;99.90;;;;;;5073994;28;20217;-64
2022/07/04 02:32:22;;;;;;;0.70;0.70;;;20.10;99.90;;;;;;5073613;28;20265;-64
2022/07/04 02:34:49;;;;;;;0.50;0.50;;;20.10;99.90;;;;;;5073470;28;20641;-63
2022/07/04 02:37:16;;;;;;;0.75;0.75;;;20.00;99.90;;;;;;5074851;28;20298;-64
2022/07/04 02:39:43;;;;;;;0.70;0.70;;;20.00;99.90;;;;;;5075009;28;20337;-64
2022/07/04 02:42:11;;;;;;;0.85;0.60;;;20.00;99.90;;;;;;5078349;28;20227;-63
2022/07/04 02:44:38;;;;;;;0.60;0.60;;;20.00;99.90;;;;;;5069502;28;20237;-65
2022/07/04 02:47:05;;;;;;;0.60;0.60;;;20.00;99.90;;;;;;5071777;28;20298;-63
2022/07/04 02:49:32;;;;;;;0.73;0.73;;;20.00;99.90;;;;;;5067208;28;20214;-63
2022/07/04 02:51:59;;;;;;;0.77;0.77;;;20.10;99.90;;;;;;5070387;28;20215;-63
2022/07/04 02:54:26;;;;;;;0.55;0.55;;;20.00;99.90;;;;;;5078505;28;20208;-64
2022/07/04 02:56:52;;;;;;;0.63;0.63;;;19.90;99.90;;;;;;5074698;28;20303;-63
2022/07/04 02:59:21;;;;;;;0.70;0.70;;;20.00;99.90;;;;;;5076243;28;20206;-63
2022/07/04 03:01:47;;;;;;;0.80;0.80;;;19.90;99.90;;;;;;5069299;28;20318;-63
2022/07/04 03:04:14;;;;;;;0.82;0.80;;;19.90;99.90;;;;;;5080422;28;20294;-63
2022/07/04 03:06:42;;;;;;;0.60;0.60;;;19.90;99.90;;;;;;5066261;28;20222;-63
2022/07/04 03:09:10;;;;;;;0.52;0.52;;;19.90;99.90;;;;;;5072133;28;20203;-63
2022/07/04 03:11:37;;;;;;;0.70;0.70;;;19.90;99.90;;;;;;5068656;28;20208;-63
2022/07/04 03:14:03;;;;;;;0.77;0.77;;;19.90;99.90;;;;;;5067050;28;20214;-64
2022/07/04 03:16:32;;;;;;;0.70;0.70;;;19.90;99.90;;;;;;5073094;28;20294;-63
2022/07/04 03:18:58;;;;;;;0.70;0.70;;;19.90;99.90;;;;;;5075333;28;20732;-63
2022/07/04 03:21:25;;;;;;;0.68;0.68;;;19.80;99.90;;;;;;5069776;28;20256;-63
2022/07/04 03:23:58;;;;;;;0.80;0.80;;;19.80;99.90;;;;;;5079639;28;20250;-63
2022/07/04 03:26:25;;;;;;;0.80;0.80;;;19.70;99.90;;;;;;5067139;28;20202;-63
2022/07/04 03:28:52;;;;;;;0.75;0.70;;;19.70;99.90;;;;;;5063880;28;20677;-62
2022/07/04 03:31:19;;;;;;;0.60;0.60;;;19.60;99.90;;;;;;5070137;28;20214;-64
2022/07/04 03:33:48;;;;;;;0.73;0.73;;;19.60;99.90;;;;;;5067569;28;20753;-65
2022/07/04 03:36:15;;;;;;;0.70;0.70;;;19.70;99.90;;;;;;5069366;28;20239;-65
2022/07/04 03:38:42;;;;;;;0.70;0.70;;;19.90;99.90;;;;;;5071742;28;20293;-64
2022/07/04 03:41:08;;;;;;;0.73;0.73;;;20.10;99.90;;;;;;5067235;28;20242;-63
2022/07/04 03:43:35;;;;;;;0.80;0.80;;;20.20;99.90;;;;;;5077186;28;20602;-65
2022/07/04 03:46:02;;;;;;;0.80;0.80;;;20.30;99.90;;;;;;5071978;28;20753;-64
2022/07/04 03:48:30;;;;;;;0.70;0.70;;;20.30;99.90;;;;;;5081960;28;20591;-64
2022/07/04 03:50:58;;;;;;;1.73;0.85;;;20.40;99.90;;;;;;5068627;28;20298;-64
2022/07/04 03:53:25;;;;;;;1.05;0.95;;;20.40;99.90;;;;;;5078058;28;20238;-65
2022/07/04 03:55:51;;;;;;;0.93;0.80;;;20.40;99.90;;;;;;5064650;28;20295;-63
2022/07/04 03:58:18;;;;;;;0.52;0.52;;;20.50;99.90;;;;;;5068670;28;20666;-64
2022/07/04 04:00:45;;;;;;;0.60;0.60;;;20.60;99.90;;;;;;5073104;28;20464;-64
2022/07/04 04:05:53;;;;;;;0.68;0.68;;;20.60;99.90;;;;;;5072269;28;20215;-63
2022/07/04 04:08:21;;;;;;;0.68;0.68;;;20.60;99.90;;;;;;5084033;28;20207;-63
2022/07/04 04:10:49;;;;;;;0.60;0.60;;;20.60;99.90;;;;;;5066567;28;20673;-64
2022/07/04 04:13:16;;;;;;;0.60;0.60;;;20.50;99.90;;;;;;5082069;28;20299;-65
2022/07/04 04:15:43;;;;;;;0.50;0.50;;;20.50;99.90;;;;;;5075232;28;20290;-62
2022/07/04 04:18:10;;;;;;;0.68;0.68;;;20.60;99.90;;;;;;5080233;28;20696;-64
2022/07/04 04:20:37;;;;;;;0.80;0.80;;;20.70;99.90;;;;;;5066165;28;20242;-64
2022/07/04 04:23:04;;;;;;;0.70;0.70;;;20.60;99.90;;;;;;5069898;28;20258;-62
2022/07/04 04:25:32;;;;;;;0.60;0.60;;;20.60;99.90;;;;;;5071705;28;20202;-64
2022/07/04 04:27:59;;;;;;;0.85;0.60;;;20.60;99.90;;;;;;5066955;28;20231;-64
2022/07/04 04:30:26;;;;;;;0.50;0.50;;;20.60;99.90;;;;;;5079729;28;20550;-63
2022/07/04 04:32:52;;;;;;;0.80;0.80;;;20.60;99.90;;;;;;5096028;22;20239;-64
2022/07/04 04:35:20;;;;;;;0.85;0.70;;;20.50;99.90;;;;;;5073798;28;20222;-65
2022/07/04 04:37:46;;;;;;;1.00;0.80;;;20.50;99.90;;;;;;5078374;28;20308;-65
2022/07/04 04:40:14;;;;;;;0.77;0.77;;;20.50;99.90;;;;;;5077168;28;20207;-65
2022/07/04 04:42:42;;;;;;;0.70;0.70;;;20.50;99.90;;;;;;5075871;28;20279;-65
2022/07/04 04:45:10;;;;;;;0.90;0.90;;;20.50;99.90;;;;;;5077906;28;20200;-64
2022/07/04 04:47:37;;;;;;;0.82;0.82;;;20.50;99.90;;;;;;5074472;28;20222;-64
2022/07/04 04:50:04;;;;;;;0.70;0.70;;;20.50;99.90;;;;;;5083152;28;20202;-68
2022/07/04 04:52:31;;;;;;;0.80;0.80;;;20.70;99.90;;;;;;5075340;28;20223;-64
2022/07/04 04:54:58;;;;;;;0.70;0.70;;;20.80;99.90;;;;;;5083247;28;20204;-65
2022/07/04 04:57:25;;;;;;;0.80;0.70;;;20.90;99.90;;;;;;5077608;28;20580;-64
2022/07/04 04:59:53;;;;;;;0.80;0.80;;;21.10;99.90;;;;;;5086517;28;20274;-70
2022/07/04 05:02:20;;;;;;;0.50;0.50;;;21.10;99.90;;;;;;5083831;28;20227;-67
2022/07/04 05:04:47;;;;;;;0.70;0.70;;;21.10;99.90;;;;;;5077136;28;20203;-66
2022/07/04 05:07:14;;;;;;;0.73;0.73;;;21.20;99.90;;;;;;5079013;28;20234;-66
2022/07/04 05:09:41;;;;;;;0.70;0.70;;;21.30;99.90;;;;;;5072114;28;20605;-66
2022/07/04 05:12:08;;;;;;;0.80;0.80;;;21.40;99.90;;;;;;5080583;28;20199;-65
2022/07/04 05:14:35;;;;;;;0.70;0.70;;;21.50;99.90;;;;;;5075492;28;20210;-65
2022/07/04 05:17:03;;;;;;;0.82;0.82;;;21.70;99.90;;;;;;5080884;28;20294;-65
2022/07/04 05:19:30;;;;;;;0.70;0.70;;;21.80;99.90;;;;;;5074168;28;20259;-67
2022/07/04 05:21:57;;;;;;;0.75;0.75;;;22.00;99.90;;;;;;5082860;28;20260;-67
2022/07/04 05:24:25;;;;;;;0.93;0.93;;;22.20;99.90;;;;;;5087320;28;20310;-66
2022/07/04 05:26:52;;;;;;;0.95;0.77;;;22.30;99.90;;;;;;5086182;28;20210;-65
2022/07/04 05:29:19;;;;;;;1.08;0.88;;;22.30;99.90;;;;;;5080949;28;20289;-66
2022/07/04 05:31:46;;;;;;;0.77;0.77;;;22.30;99.90;;;;;;5081932;28;20206;-65
2022/07/04 05:34:14;;;;;;;0.77;0.77;;;22.30;99.90;;;;;;5075295;28;20231;-66
2022/07/04 05:36:41;;;;;;;0.60;0.60;;;22.20;99.90;;;;;;5076280;28;20211;-66
2022/07/04 05:39:08;;;;;;;0.70;0.70;;;22.30;99.90;;;;;;5073646;28;20297;-65
2022/07/04 05:41:34;;;;;;;1.20;0.80;;;22.40;99.90;;;;;;5077207;28;20214;-66
2022/07/04 05:44:01;;;;;;;0.80;0.80;;;22.40;99.90;;;;;;5077988;28;20313;-66
2022/07/04 05:46:28;;;;;;;0.70;0.70;;;22.40;99.90;;;;;;5074916;28;20290;-65
2022/07/04 05:48:55;;;;;;;0.88;0.88;;;22.30;99.90;;;;;;5072692;28;20200;-65
2022/07/04 05:51:23;;;;;;;0.90;0.90;;;22.30;99.90;;;;;;5071003;28;20234;-64
2022/07/04 05:53:50;;;;;;;0.80;0.80;;;22.40;99.90;;;;;;5073000;28;20222;-66
2022/07/04 05:56:17;;;;;;;0.68;0.68;;;22.60;99.90;;;;;;5072203;28;20209;-66
2022/07/04 05:58:44;;;;;;;0.70;0.70;;;22.90;99.90;;;;;;5074106;28;20326;-66
2022/07/04 06:01:11;;;;;;;0.80;0.80;;;22.90;99.90;;;;;;5072361;28;20316;-65
2022/07/04 06:03:38;;;;;;;0.82;0.82;;;22.90;99.90;;;;;;5070955;28;20223;-66
2022/07/04 06:06:05;;;;;;;1.42;0.80;;;22.90;99.90;;;;;;5073025;28;20200;-66
2022/07/04 06:08:34;;;;;;;0.70;0.70;;;23.00;99.90;;;;;;5067049;28;20209;-67
2022/07/04 06:11:01;;;;;;;0.77;0.77;;;23.00;99.90;;;;;;5073249;28;20584;-66
2022/07/04 06:13:28;;;;;;;0.80;0.80;;;22.90;99.90;;;;;;5070682;28;20591;-66
2022/07/04 06:15:55;;;;;;;1.00;0.82;;;22.90;99.90;;;;;;5069149;28;20211;-66
2022/07/04 06:18:23;;;;;;;0.60;0.60;;;22.90;99.90;;;;;;5067148;28;20544;-66
2022/07/04 06:20:51;;;;;;;0.80;0.80;;;22.90;99.90;;;;;;5072363;28;20210;-64
2022/07/04 06:23:17;;;;;;;0.60;0.60;;;22.90;99.90;;;;;;5070913;28;20738;-66
2022/07/04 06:25:46;;;;;;;1.30;1.00;;;22.80;99.90;;;;;;5071338;28;20287;-66
2022/07/04 06:28:13;;;;;;;0.70;0.70;;;22.90;99.90;;;;;;5070042;28;20211;-66
2022/07/04 06:30:40;;;;;;;0.73;0.73;;;22.90;99.90;;;;;;5076154;28;20743;-66
2022/07/04 06:33:06;;;;;;;0.80;0.77;;;23.00;99.90;;;;;;5074301;28;20246;-64
2022/07/04 06:35:44;;;;;;;0.98;0.98;;;23.10;99.90;;;;;;5077187;28;20203;-66
2022/07/04 06:38:12;;;;;;;0.70;0.70;;;23.20;99.90;;;;;;5071847;28;21420;-65
2022/07/04 06:40:41;;;;;;;0.75;0.75;;;23.20;99.90;;;;;;5071968;28;20299;-66
2022/07/04 06:43:10;;;;;;;0.98;0.98;;;23.20;99.90;;;;;;5074057;28;20219;-66
2022/07/04 06:45:37;;;;;;;0.70;0.70;;;23.30;99.90;;;;;;5071269;28;20286;-65
2022/07/04 06:48:04;;;;;;;0.88;0.88;;;23.20;99.90;;;;;;5071201;28;20221;-65
2022/07/04 06:50:33;;;;;;;0.88;0.88;;;23.10;99.90;;;;;;5070769;28;20202;-65
2022/07/04 06:53:00;;;;;;;1.88;1.05;;;22.80;99.90;;;;;;5067953;28;20306;-65
2022/07/04 06:55:27;;;;;;;0.80;0.80;;;22.70;99.90;;;;;;5082628;28;20204;-64
2022/07/04 06:57:54;;;;;;;0.88;0.88;;;22.50;99.90;;;;;;5079559;28;20203;-65
2022/07/04 07:00:23;;;;;;;1.08;0.90;;;22.40;99.90;;;;;;5081833;28;20278;-64
2022/07/04 07:02:50;;;;;;;0.80;0.80;;;22.30;99.90;;;;;;5084695;28;20345;-64
2022/07/04 07:05:17;;;;;;;0.70;0.70;;;22.30;99.90;;;;;;5079444;28;20707;-65
2022/07/04 07:07:44;;;;;;;0.90;0.90;;;22.30;99.90;;;;;;5063753;28;20210;-66
2022/07/04 07:10:11;;;;;;;0.90;0.90;;;22.50;99.90;;;;;;5064311;28;20252;-65
2022/07/04 07:12:37;;;;;;;0.68;0.68;;;22.40;99.90;;;;;;5070458;28;20224;-65
2022/07/04 07:15:05;;;;;;;0.75;0.75;;;22.30;99.90;;;;;;5072929;28;20274;-65
2022/07/04 07:17:33;;;;;;;1.42;0.88;;;22.30;99.90;;;;;;5071700;28;20586;-64
2022/07/04 07:20:00;;;;;;;1.00;1.00;;;22.20;99.90;;;;;;5077727;28;20290;-65
2022/07/04 07:22:27;;;;;;;0.98;0.90;;;22.30;99.90;;;;;;5076570;28;20246;-66
2022/07/04 07:24:54;;;;;;;0.70;0.70;;;22.40;99.90;;;;;;5080918;28;20218;-64
2022/07/04 07:27:21;;;;;;;1.00;0.80;;;22.40;99.90;;;;;;5084040;28;20286;-66
2022/07/04 07:29:47;;;;;;;0.70;0.68;;;22.50;99.90;;;;;;5078906;28;20207;-66
2022/07/04 07:32:14;;;;;;;0.80;0.80;;;22.50;99.90;;;;;;5088057;28;20195;-65
2022/07/04 07:34:43;;;;;;;1.08;1.08;;;22.60;99.90;;;;;;5083982;28;20207;-66
2022/07/04 07:37:10;;;;;;;0.73;0.73;;;22.70;99.90;;;;;;5080996;28;20287;-67
2022/07/04 07:39:36;;;;;;;0.82;0.82;;;22.80;99.90;;;;;;5089809;28;20311;-65
2022/07/04 07:42:04;;;;;;;0.88;0.88;;;22.80;99.90;;;;;;5084318;28;20203;-66
2022/07/04 07:44:31;;;;;;;1.10;1.00;;;22.70;99.90;;;;;;5081376;28;20246;-64
2022/07/04 07:46:58;;;;;;;1.02;0.90;;;22.80;99.90;;;;;;5079751;28;20277;-65
2022/07/04 07:49:25;;;;;;;0.63;0.63;;;22.80;99.90;;;;;;5082450;28;20218;-64
2022/07/04 07:51:53;;;;;;;1.27;0.70;;;22.80;99.90;;;;;;5080390;28;20206;-64
2022/07/04 07:54:20;;;;;;;0.80;0.80;;;22.70;99.90;;;;;;5080815;28;20217;-63
2022/07/04 07:56:46;;;;;;;1.00;1.00;;;22.80;99.90;;;;;;5085402;28;20217;-65
2022/07/04 07:59:13;;;;;;;0.80;0.80;;;22.80;99.90;;;;;;5085495;28;20209;-66
2022/07/04 08:01:40;;;;;;;0.77;0.77;;;22.70;99.90;;;;;;5082506;28;20230;-63
2022/07/04 08:06:53;;;;;;;0.90;0.90;;;22.90;99.90;;;;;;5084030;28;20275;-66
2022/07/04 08:09:19;;;;;;;1.67;1.10;;;22.90;99.90;;;;;;5078118;28;20548;-67
2022/07/04 08:11:47;;;;;;;0.80;0.80;;;23.10;99.90;;;;;;5080221;28;20205;-65
2022/07/04 08:14:14;;;;;;;0.70;0.70;;;23.20;99.90;;;;;;5084576;28;20245;-63
2022/07/04 08:16:41;;;;;;;0.57;0.57;;;23.50;99.90;;;;;;5082545;28;20373;-63
2022/07/04 08:19:08;;;;;;;0.75;0.75;;;23.60;99.90;;;;;;5085432;28;20194;-63
2022/07/04 08:21:35;;;;;;;0.70;0.70;;;23.70;99.90;;;;;;5077916;28;20209;-64
2022/07/04 08:24:03;;;;;;;0.80;0.80;;;23.70;99.90;;;;;;5083608;28;20227;-64
2022/07/04 08:26:30;;;;;;;0.82;0.82;;;23.70;99.90;;;;;;5082229;28;20285;-66
2022/07/04 08:28:59;;;;;;;0.70;0.70;;;23.90;99.90;;;;;;5080682;28;20294;-65
2022/07/04 08:31:26;;;;;;;0.82;0.82;;;24.00;99.90;;;;;;5079516;28;20720;-66
2022/07/04 08:33:53;;;;;;;1.00;0.90;;;24.20;99.90;;;;;;5085751;28;20262;-66
2022/07/04 08:36:20;;;;;;;1.25;1.15;;;24.10;99.90;;;;;;5083057;28;20203;-64
2022/07/04 08:38:47;;;;;;;1.70;0.80;;;24.20;99.90;;;;;;5082118;28;20209;-66
2022/07/04 08:41:16;;;;;;;0.75;0.75;;;24.20;99.90;;;;;;5089782;28;20656;-66
2022/07/04 08:43:45;;;;;;;2.08;1.00;;;24.20;99.90;;;;;;5104277;28;20215;-66
2022/07/04 08:46:12;;;;;;;0.80;0.75;;;24.30;99.90;;;;;;5104946;28;20209;-65
2022/07/04 08:48:41;;;;;;;0.77;0.77;;;24.40;99.90;;;;;;5098750;28;20281;-63
2022/07/04 08:51:15;;;;;;;0.70;0.70;;;24.40;99.90;;;;;;5080622;28;20204;-64
2022/07/04 08:53:54;;;;;;;2.05;1.05;;;24.50;99.90;;;;;;5081088;28;20603;-63
2022/07/04 08:59:09;;;;;;;1.65;0.65;;;24.60;99.90;;;;;;5088994;28;20253;-69
2022/07/04 09:01:37;;;;;;;0.70;0.70;;;24.60;99.90;;;;;;5092938;28;20262;-67
2022/07/04 09:04:05;;;;;;;0.70;0.70;;;24.70;99.90;;;;;;5088960;28;20792;-64
2022/07/04 09:06:32;;;;;;;0.73;0.73;;;24.90;99.90;;;;;;5081547;28;20282;-64
2022/07/04 09:09:00;;;;;;;0.82;0.82;;;25.00;99.90;;;;;;5079737;28;20282;-66
2022/07/04 09:11:28;;;;;;;0.98;0.98;;;25.00;99.90;;;;;;5083717;28;20349;-66
2022/07/04 09:13:57;;;;;;;0.63;0.63;;;24.90;99.90;;;;;;5083253;28;20215;-67
2022/07/04 09:16:24;;;;;;;0.80;0.80;;;24.80;99.90;;;;;;5082060;28;20641;-65
2022/07/04 09:18:55;;;;;;;0.80;0.80;;;24.90;99.90;;;;;;5063755;28;20290;-65
2022/07/04 09:21:43;;;;;;;0.82;0.82;;;24.80;99.90;;;;;;5080189;28;20196;-65
2022/07/04 09:24:09;;;;;;;0.70;0.70;;;24.90;99.90;;;;;;5079384;28;20227;-66
2022/07/04 09:26:44;;;;;;;0.80;0.80;;;25.10;99.90;;;;;;5082925;28;20624;-65
2022/07/04 09:29:13;;;;;;;0.70;0.70;;;25.10;99.90;;;;;;5068239;28;20230;-68
2022/07/04 09:31:40;;;;;;;0.80;0.80;;;25.20;99.90;;;;;;5067042;28;20211;-65
2022/07/04 09:34:08;;;;;;;0.90;0.90;;;25.10;99.90;;;;;;5063037;28;20243;-67
2022/07/04 09:36:39;;;;;;;0.80;0.80;;;25.10;99.90;;;;;;5071596;28;20214;-64
2022/07/04 09:39:14;;;;;;;1.13;1.13;;;25.20;99.90;;;;;;5071539;28;20273;-65
2022/07/04 09:41:57;;;;;;;0.70;0.70;;;25.40;99.90;;;;;;5076045;28;20213;-66
2022/07/04 09:44:26;;;;;;;0.70;0.70;;;25.60;99.90;;;;;;5078784;28;20222;-65
2022/07/04 09:46:53;;;;;;;0.80;0.80;;;25.70;99.90;;;;;;5077036;28;20808;-65
2022/07/04 09:49:21;;;;;;;1.00;0.98;;;25.70;99.90;;;;;;5076462;28;20208;-65
2022/07/04 09:51:51;;;;;;;0.60;0.60;;;25.70;99.90;;;;;;5075371;28;20211;-66
2022/07/04 09:54:25;;;;;;;16.83;4.90;;;25.90;99.90;;;;;;5070522;28;20226;-66
2022/07/04 09:56:54;;;;;;;1.05;0.80;;;26.00;99.90;;;;;;5073898;28;20635;-66
2022/07/04 09:59:23;;;;;;;1.77;1.63;;;26.10;99.90;;;;;;5069177;28;20282;-65
2022/07/04 10:01:51;;;;;;;1.35;0.90;;;26.10;99.90;;;;;;5079676;28;20251;-66
2022/07/04 10:04:21;;;;;;;0.80;0.80;;;26.00;99.90;;;;;;5079046;28;20219;-66
2022/07/04 10:06:51;;;;;;;0.80;0.80;;;26.00;99.90;;;;;;5074632;28;20310;-68
2022/07/04 10:09:19;;;;;;;0.75;0.75;;;26.10;99.90;;;;;;5070552;28;20702;-67
2022/07/04 10:11:47;;;;;;;0.80;0.80;;;26.10;99.90;;;;;;5080974;28;20213;-67
2022/07/04 10:14:15;;;;;;;0.75;0.75;;;26.30;99.90;;;;;;5079252;28;20254;-69
2022/07/04 10:16:43;;;;;;;0.70;0.70;;;26.30;99.90;;;;;;5074704;28;20208;-68
2022/07/04 10:19:12;;;;;;;1.40;1.15;;;26.30;99.90;;;;;;5082248;28;20234;-68
2022/07/04 10:21:39;;;;;;;0.70;0.70;;;26.30;99.90;;;;;;5066626;28;20207;-67
2022/07/04 10:24:08;;;;;;;2.35;0.88;;;26.30;99.90;;;;;;5073539;28;20227;-69
2022/07/04 10:26:35;;;;;;;2.80;1.02;;;26.40;99.90;;;;;;5069745;28;20211;-68
2022/07/04 10:29:02;;;;;;;0.85;0.60;;;26.40;99.90;;;;;;5081316;28;20733;-69
2022/07/04 10:31:31;;;;;;;1.77;0.90;;;26.40;99.90;;;;;;5081840;28;20201;-66
2022/07/04 10:34:00;;;;;;;2.30;1.38;;;26.70;99.90;;;;;;5135117;22;20555;-65
2022/07/04 10:36:29;;;;;;;3.45;2.08;;;26.90;99.90;;;;;;5063557;28;20300;-64
2022/07/04 10:38:58;;;;;;;1.10;1.00;;;26.90;99.90;;;;;;5070012;28;20290;-65
2022/07/04 10:41:26;;;;;;;1.10;1.10;;;26.90;99.90;;;;;;5071662;28;20200;-64
2022/07/04 10:44:06;;;;;;;0.75;0.75;;;27.00;99.90;;;;;;5067931;28;20851;-65
2022/07/04 10:46:56;;;;;;;1.67;0.85;;;27.00;99.90;;;;;;5051807;28;20231;-64
2022/07/04 10:49:29;;;;;;;0.77;0.77;;;27.30;99.90;;;;;;5046607;28;20204;-64
2022/07/04 10:52:08;;;;;;;1.10;1.10;;;27.30;99.90;;;;;;5052318;28;20231;-64
2022/07/04 10:54:37;;;;;;;1.50;1.40;;;27.20;99.90;;;;;;5049691;28;20220;-65
2022/07/04 10:57:11;;;;;;;1.35;1.25;;;27.10;99.90;;;;;;5049107;28;20235;-65
2022/07/04 10:59:39;;;;;;;1.85;1.10;;;27.00;99.90;;;;;;5051082;28;20210;-65
2022/07/04 11:02:27;;;;;;;1.35;1.30;;;26.90;99.90;;;;;;5048499;28;20211;-65
2022/07/04 11:05:07;;;;;;;1.20;1.10;;;26.70;99.90;;;;;;5053104;28;20227;-65
2022/07/04 11:07:59;;;;;;;0.75;0.75;;;26.90;99.90;;;;;;5049470;28;20219;-64
2022/07/04 11:10:27;;;;;;;1.13;1.00;;;26.80;99.90;;;;;;5036568;28;20228;-64
2022/07/04 11:13:17;;;;;;;0.63;0.63;;;26.80;99.90;;;;;;5048198;28;20661;-64
2022/07/04 11:16:04;;;;;;;1.08;1.08;;;26.90;99.90;;;;;;5047841;28;20219;-65
2022/07/04 11:18:39;;;;;;;0.98;0.90;;;27.00;99.90;;;;;;5050076;28;20232;-63
2022/07/04 11:21:20;;;;;;;0.80;0.80;;;27.20;99.90;;;;;;5052577;28;20209;-65
2022/07/04 11:23:51;;;;;;;0.90;0.90;;;27.20;99.90;;;;;;5052057;28;20210;-65
2022/07/04 11:26:21;;;;;;;1.13;1.05;;;27.00;99.90;;;;;;5052163;28;20204;-66
2022/07/04 11:28:48;;;;;;;0.95;0.88;;;26.90;99.90;;;;;;5052780;28;20548;-65
2022/07/04 11:31:15;;;;;;;0.80;0.80;;;26.90;99.90;;;;;;5048677;28;20288;-63
2022/07/04 11:33:43;;;;;;;0.90;0.90;;;27.20;99.90;;;;;;5046923;28;20710;-64
2022/07/04 11:36:14;;;;;;;1.00;1.00;;;27.20;99.90;;;;;;5054038;28;20584;-64
2022/07/04 11:38:45;;;;;;;1.17;0.85;;;27.20;99.90;;;;;;5051752;28;20215;-65
2022/07/04 11:46:41;;;;;;;0.80;0.80;;;27.20;99.90;;;;;;5058652;28;20309;-65
2022/07/04 11:49:09;;;;;;;0.80;0.80;;;27.00;99.90;;;;;;5043607;28;20195;-64
2022/07/04 11:51:43;;;;;;;0.73;0.70;;;27.20;99.90;;;;;;5037380;28;20200;-65
2022/07/04 11:54:10;;;;;;;0.85;0.85;;;27.40;99.90;;;;;;5065244;28;20270;-65
2022/07/04 11:56:37;;;;;;;0.75;0.75;;;27.30;99.90;;;;;;5057115;28;20209;-65
2022/07/04 11:59:12;;;;;;;0.70;0.70;;;27.20;99.90;;;;;;5069227;28;20264;-67
2022/07/04 12:01:39;;;;;;;0.98;0.70;;;27.40;99.90;;;;;;5056557;28;20299;-65
2022/07/04 12:04:17;;;;;;;0.80;0.80;;;27.40;99.90;;;;;;5071878;28;20314;-64
2022/07/04 12:06:47;;;;;;;0.70;0.70;;;27.50;99.90;;;;;;5056383;28;20208;-64
2022/07/04 12:09:16;;;;;;;0.75;0.75;;;27.50;99.90;;;;;;5043474;28;20295;-64
2022/07/04 12:11:54;;;;;;;0.82;0.82;;;27.60;99.90;;;;;;5055822;28;20694;-65
2022/07/04 12:14:21;;;;;;;0.82;0.82;;;27.70;99.90;;;;;;5056334;28;20266;-64
2022/07/04 12:16:48;;;;;;;0.90;0.90;;;27.80;99.90;;;;;;5059373;28;20291;-64
2022/07/04 12:19:15;;;;;;;0.85;0.80;;;27.80;99.90;;;;;;5056679;28;20238;-65
2022/07/04 12:21:45;;;;;;;0.80;0.80;;;27.90;99.90;;;;;;5052450;28;20240;-66
2022/07/04 12:24:14;;;;;;;0.77;0.77;;;28.00;99.90;;;;;;5053385;28;20341;-65
2022/07/04 12:26:47;;;;;;;0.80;0.80;;;27.80;99.90;;;;;;5060553;28;20215;-64
2022/07/04 12:29:22;;;;;;;0.82;0.82;;;27.70;99.90;;;;;;5056462;28;20206;-65
2022/07/04 12:31:52;;;;;;;0.50;0.50;;;27.80;99.90;;;;;;5057984;28;20640;-65
2022/07/04 12:34:20;;;;;;;0.80;0.80;;;27.60;99.90;;;;;;5045892;28;20263;-65
2022/07/04 12:36:52;;;;;;;0.80;0.80;;;27.80;99.90;;;;;;5046483;28;20324;-64
2022/07/04 12:39:30;;;;;;;1.15;0.90;;;28.20;99.90;;;;;;5049321;28;20203;-64
2022/07/04 12:42:11;;;;;;;0.73;0.70;;;28.20;99.90;;;;;;5051493;28;20299;-65
2022/07/04 12:44:39;;;;;;;1.27;1.10;;;28.10;99.90;;;;;;5050903;28;20775;-65
2022/07/04 12:47:07;;;;;;;0.65;0.60;;;28.20;99.90;;;;;;5061669;28;20616;-64
2022/07/04 12:49:34;;;;;;;0.90;0.90;;;28.10;99.90;;;;;;5052740;28;20262;-65
2022/07/04 12:52:07;;;;;;;1.20;0.77;;;28.00;99.90;;;;;;5065030;28;20493;-65
2022/07/04 12:54:35;;;;;;;1.83;0.82;;;28.10;99.90;;;;;;5058242;28;20263;-65
2022/07/04 12:57:07;;;;;;;2.92;0.80;;;28.20;99.90;;;;;;5057524;28;20247;-65
2022/07/04 12:59:34;;;;;;;0.73;0.73;;;28.10;99.90;;;;;;5060342;28;20208;-65
2022/07/04 13:02:01;;;;;;;0.70;0.70;;;28.10;99.90;;;;;;5061589;28;20215;-66
2022/07/04 13:04:28;;;;;;;0.80;0.80;;;28.40;99.90;;;;;;5057732;28;20257;-65
2022/07/04 13:06:55;;;;;;;0.60;0.60;;;28.50;99.90;;;;;;5058574;28;20290;-66
2022/07/04 13:09:23;;;;;;;0.55;0.55;;;28.50;99.90;;;;;;5052997;28;20203;-64
2022/07/04 13:14:35;;;;;;;0.85;0.80;;;28.30;99.90;;;;;;5058677;28;20238;-64
2022/07/04 13:17:01;;;;;;;1.75;0.90;;;28.20;99.90;;;;;;5047770;28;20628;-64